Terminal Aerodrome Forecast
Issued by NWS

Home | Current Version | Previous Version | Text Only | Print | Product List | Glossary Off
Versions: 1 2 3 4 5 6 7 8 9 10 11 12 13

934
FTUS43 KGRB 031729
TAFMTW
TAF
KMTW 031729Z 0318/0418 28012G24KT P6SM SCT050 BKN200
     FM032300 25015G21KT P6SM VCSH BKN060
      TEMPO 0323/0403 3SM -TSRA BKN040CB
     FM040300 31007KT P6SM VCSH SCT040 BKN100
     FM040900 34012KT P6SM SCT025 BKN040
     FM041400 34016G26KT P6SM BKN035=

USA.gov is the U.S. government's official web portal to all federal, state and local government web resources and services.